sensor_id;sensor_type;location;lat;lon;timestamp;pressure;altitude;pressure_sealevel;temperature;humidity
10202;BME280;5143;42.584;23.164;2023-04-24T00:00:13;92327.88;;;10.63;100.00
10202;BME280;5143;42.584;23.164;2023-04-24T00:02:41;92318.50;;;10.70;100.00
10202;BME280;5143;42.584;23.164;2023-04-24T00:05:14;92317.75;;;10.75;100.00
10202;BME280;5143;42.584;23.164;2023-04-24T00:07:41;92324.00;;;10.81;100.00
10202;BME280;5143;42.584;23.164;2023-04-24T00:10:09;92313.06;;;10.76;100.00
10202;BME280;5143;42.584;23.164;2023-04-24T00:12:36;92312.84;;;10.79;100.00
10202;BME280;5143;42.584;23.164;2023-04-24T00:15:03;92318.78;;;10.78;100.00
10202;BME280;5143;42.584;23.164;2023-04-24T00:17:30;92318.28;;;10.79;100.00
10202;BME280;5143;42.584;23.164;2023-04-24T00:19:57;92319.78;;;10.80;100.00
10202;BME280;5143;42.584;23.164;2023-04-24T00:22:26;92318.03;;;10.83;100.00
10202;BME280;5143;42.584;23.164;2023-04-24T00:24:53;92315.59;;;10.85;100.00
10202;BME280;5143;42.584;23.164;2023-04-24T00:27:19;92324.06;;;10.92;100.00
10202;BME280;5143;42.584;23.164;2023-04-24T00:29:46;92315.34;;;10.88;100.00
10202;BME280;5143;42.584;23.164;2023-04-24T00:32:13;92323.31;;;10.92;100.00
10202;BME280;5143;42.584;23.164;2023-04-24T00:34:40;92332.50;;;10.94;100.00
10202;BME280;5143;42.584;23.164;2023-04-24T00:37:07;92329.28;;;10.96;100.00
10202;BME280;5143;42.584;23.164;2023-04-24T00:39:36;92325.81;;;10.95;100.00
10202;BME280;5143;42.584;23.164;2023-04-24T00:42:03;92321.34;;;10.98;100.00
10202;BME280;5143;42.584;23.164;2023-04-24T00:44:32;92311.41;;;11.00;100.00
10202;BME280;5143;42.584;23.164;2023-04-24T00:46:59;92313.63;;;10.96;100.00
10202;BME280;5143;42.584;23.164;2023-04-24T00:49:27;92313.66;;;11.02;100.00
10202;BME280;5143;42.584;23.164;2023-04-24T00:51:53;92312.94;;;11.01;100.00
10202;BME280;5143;42.584;23.164;2023-04-24T00:54:20;92316.38;;;10.96;100.00
10202;BME280;5143;42.584;23.164;2023-04-24T00:56:48;92316.84;;;10.89;100.00
10202;BME280;5143;42.584;23.164;2023-04-24T00:59:17;92323.28;;;10.86;100.00
10202;BME280;5143;42.584;23.164;2023-04-24T01:01:44;92321.81;;;10.96;100.00
10202;BME280;5143;42.584;23.164;2023-04-24T01:04:11;92325.81;;;10.95;100.00
10202;BME280;5143;42.584;23.164;2023-04-24T01:06:39;92318.63;;;10.98;100.00
10202;BME280;5143;42.584;23.164;2023-04-24T01:09:07;92319.38;;;10.98;100.00
10202;BME280;5143;42.584;23.164;2023-04-24T01:11:34;92323.06;;;10.90;100.00
10202;BME280;5143;42.584;23.164;2023-04-24T01:14:02;92314.34;;;10.91;100.00
10202;BME280;5143;42.584;23.164;2023-04-24T01:16:29;92316.84;;;10.89;100.00
10202;BME280;5143;42.584;23.164;2023-04-24T01:18:56;92319.06;;;10.91;100.00
10202;BME280;5143;42.584;23.164;2023-04-24T01:21:23;92300.41;;;10.78;100.00
10202;BME280;5143;42.584;23.164;2023-04-24T01:23:55;92291.94;;;10.71;100.00
10202;BME280;5143;42.584;23.164;2023-04-24T01:26:22;92287.19;;;10.60;100.00
10202;BME280;5143;42.584;23.164;2023-04-24T01:28:51;92278.47;;;10.56;100.00
10202;BME280;5143;42.584;23.164;2023-04-24T01:31:18;92277.97;;;10.52;100.00
10202;BME280;5143;42.584;23.164;2023-04-24T01:33:45;92277.66;;;10.44;100.00
10202;BME280;5143;42.584;23.164;2023-04-24T01:36:13;92272.91;;;10.34;100.00
10202;BME280;5143;42.584;23.164;2023-04-24T01:38:40;92263.94;;;10.28;100.00
10202;BME280;5143;42.584;23.164;2023-04-24T01:41:08;92254.00;;;10.25;100.00
10202;BME280;5143;42.584;23.164;2023-04-24T01:43:35;92245.81;;;10.25;100.00
10202;BME280;5143;42.584;23.164;2023-04-24T01:46:02;92255.28;;;10.29;100.00
10202;BME280;5143;42.584;23.164;2023-04-24T01:48:29;92250.56;;;10.30;100.00
10202;BME280;5143;42.584;23.164;2023-04-24T01:50:56;92252.75;;;10.26;100.00
10202;BME280;5143;42.584;23.164;2023-04-24T01:53:23;92251.28;;;10.30;100.00
10202;BME280;5143;42.584;23.164;2023-04-24T01:55:50;92258.31;;;10.42;100.00
10202;BME280;5143;42.584;23.164;2023-04-24T01:58:18;92253.59;;;10.43;100.00
10202;BME280;5143;42.584;23.164;2023-04-24T02:00:45;92257.09;;;10.49;100.00
10202;BME280;5143;42.584;23.164;2023-04-24T02:03:11;92257.13;;;10.54;100.00
10202;BME280;5143;42.584;23.164;2023-04-24T02:05:38;92258.13;;;10.57;100.00
10202;BME280;5143;42.584;23.164;2023-04-24T02:08:05;92250.44;;;10.55;100.00
10202;BME280;5143;42.584;23.164;2023-04-24T02:10:32;92250.44;;;10.55;100.00
10202;BME280;5143;42.584;23.164;2023-04-24T02:12:58;92249.44;;;10.53;100.00
10202;BME280;5143;42.584;23.164;2023-04-24T02:15:27;92248.66;;;10.47;100.00
10202;BME280;5143;42.584;23.164;2023-04-24T02:17:54;92253.81;;;10.39;100.00
10202;BME280;5143;42.584;23.164;2023-04-24T02:20:20;92246.59;;;10.31;100.00
10202;BME280;5143;42.584;23.164;2023-04-24T02:22:47;92242.13;;;10.33;100.00
10202;BME280;5143;42.584;23.164;2023-04-24T02:25:14;92252.09;;;10.42;100.00
10202;BME280;5143;42.584;23.164;2023-04-24T02:27:41;92239.97;;;10.43;100.00
10202;BME280;5143;42.584;23.164;2023-04-24T02:30:08;92234.00;;;10.44;100.00
10202;BME280;5143;42.584;23.164;2023-04-24T02:32:37;92235.28;;;10.49;100.00
10202;BME280;5143;42.584;23.164;2023-04-24T02:35:05;92230.06;;;10.51;100.00
10202;BME280;5143;42.584;23.164;2023-04-24T02:37:31;92234.31;;;10.52;100.00
10202;BME280;5143;42.584;23.164;2023-04-24T02:39:58;92233.56;;;10.57;100.00
10202;BME280;5143;42.584;23.164;2023-04-24T02:42:25;92232.31;;;10.58;100.00
10202;BME280;5143;42.584;23.164;2023-04-24T02:44:52;92227.13;;;10.54;100.00
10202;BME280;5143;42.584;23.164;2023-04-24T02:47:18;92227.88;;;10.60;100.00
10202;BME280;5143;42.584;23.164;2023-04-24T02:49:46;92229.38;;;10.67;100.00
10202;BME280;5143;42.584;23.164;2023-04-24T02:52:13;92229.91;;;10.71;100.00
10202;BME280;5143;42.584;23.164;2023-04-24T02:54:40;92224.19;;;10.69;100.00
10202;BME280;5143;42.584;23.164;2023-04-24T02:57:07;92223.19;;;10.72;100.00
10202;BME280;5143;42.584;23.164;2023-04-24T02:59:34;92227.66;;;10.70;100.00
10202;BME280;5143;42.584;23.164;2023-04-24T03:02:00;92227.66;;;10.70;100.00
10202;BME280;5143;42.584;23.164;2023-04-24T03:04:27;92221.44;;;10.69;100.00
10202;BME280;5143;42.584;23.164;2023-04-24T03:06:55;92226.91;;;10.69;100.00
10202;BME280;5143;42.584;23.164;2023-04-24T03:09:22;92225.19;;;10.72;100.00
10202;BME280;5143;42.584;23.164;2023-04-24T03:11:49;92225.16;;;10.66;100.00
10202;BME280;5143;42.584;23.164;2023-04-24T03:14:16;92230.91;;;10.68;100.00
10202;BME280;5143;42.584;23.164;2023-04-24T03:16:42;92235.81;;;10.64;100.00
10202;BME280;5143;42.584;23.164;2023-04-24T03:19:09;92235.78;;;10.53;100.00
10202;BME280;5143;42.584;23.164;2023-04-24T03:21:36;92238.50;;;10.53;100.00
10202;BME280;5143;42.584;23.164;2023-04-24T03:24:07;92233.31;;;10.55;100.00
10202;BME280;5143;42.584;23.164;2023-04-24T03:26:34;92228.34;;;10.53;100.00
10202;BME280;5143;42.584;23.164;2023-04-24T03:29:00;92236.03;;;10.55;100.00
10202;BME280;5143;42.584;23.164;2023-04-24T03:31:27;92236.06;;;10.60;100.00
10202;BME280;5143;42.584;23.164;2023-04-24T03:33:54;92237.81;;;10.69;100.00
10202;BME280;5143;42.584;23.164;2023-04-24T03:36:21;92237.81;;;10.69;100.00
10202;BME280;5143;42.584;23.164;2023-04-24T03:38:47;92235.63;;;10.73;100.00
10202;BME280;5143;42.584;23.164;2023-04-24T03:41:15;92223.44;;;10.74;100.00
10202;BME280;5143;42.584;23.164;2023-04-24T03:43:42;92222.00;;;10.79;100.00
10202;BME280;5143;42.584;23.164;2023-04-24T03:46:09;92228.22;;;10.90;100.00
10202;BME280;5143;42.584;23.164;2023-04-24T03:48:36;92231.22;;;10.98;100.00
10202;BME280;5143;42.584;23.164;2023-04-24T03:51:03;92240.66;;;11.08;100.00
10202;BME280;5143;42.584;23.164;2023-04-24T03:53:30;92238.94;;;11.10;100.00
10202;BME280;5143;42.584;23.164;2023-04-24T03:55:56;92243.91;;;11.06;100.00
10202;BME280;5143;42.584;23.164;2023-04-24T03:58:24;92245.38;;;11.07;100.00
10202;BME280;5143;42.584;23.164;2023-04-24T04:00:51;92240.19;;;11.09;100.00
10202;BME280;5143;42.584;23.164;2023-04-24T04:03:18;92246.16;;;11.13;100.00
10202;BME280;5143;42.584;23.164;2023-04-24T04:05:45;92235.97;;;11.14;100.00
10202;BME280;5143;42.584;23.164;2023-04-24T04:08:11;92238.44;;;11.06;100.00
10202;BME280;5143;42.584;23.164;2023-04-24T04:10:38;92235.19;;;10.97;100.00
10202;BME280;5143;42.584;23.164;2023-04-24T04:13:05;92246.84;;;10.97;100.00
10202;BME280;5143;42.584;23.164;2023-04-24T04:15:33;92240.66;;;11.02;100.00
10202;BME280;5143;42.584;23.164;2023-04-24T04:18:01;92243.41;;;11.08;100.00
10202;BME280;5143;42.584;23.164;2023-04-24T04:20:27;92245.66;;;11.15;100.00
10202;BME280;5143;42.584;23.164;2023-04-24T04:22:54;92242.44;;;11.22;100.00
10202;BME280;5143;42.584;23.164;2023-04-24T04:25:21;92252.63;;;11.27;100.00
10202;BME280;5143;42.584;23.164;2023-04-24T04:27:48;92252.63;;;11.27;100.00
10202;BME280;5143;42.584;23.164;2023-04-24T04:30:16;92249.13;;;11.21;100.00
10202;BME280;5143;42.584;23.164;2023-04-24T04:32:44;92249.91;;;11.33;100.00
10202;BME280;5143;42.584;23.164;2023-04-24T04:35:11;92255.63;;;11.40;100.00
10202;BME280;5143;42.584;23.164;2023-04-24T04:37:38;92255.38;;;11.44;100.00
10202;BME280;5143;42.584;23.164;2023-04-24T04:40:06;92261.38;;;11.48;100.00
10202;BME280;5143;42.584;23.164;2023-04-24T04:42:37;92269.31;;;11.46;100.00
10202;BME280;5143;42.584;23.164;2023-04-24T04:45:06;92263.59;;;11.49;100.00
10202;BME280;5143;42.584;23.164;2023-04-24T04:47:34;92265.09;;;11.50;100.00
10202;BME280;5143;42.584;23.164;2023-04-24T04:50:03;92270.31;;;11.59;100.00
10202;BME280;5143;42.584;23.164;2023-04-24T04:52:30;92258.91;;;11.61;100.00
10202;BME280;5143;42.584;23.164;2023-04-24T04:54:57;92264.34;;;11.61;100.00
10202;BME280;5143;42.584;23.164;2023-04-24T04:57:24;92267.34;;;11.63;100.00
10202;BME280;5143;42.584;23.164;2023-04-24T04:59:51;92272.34;;;11.81;100.00
10202;BME280;5143;42.584;23.164;2023-04-24T05:02:18;92266.88;;;11.81;100.00
10202;BME280;5143;42.584;23.164;2023-04-24T05:04:44;92277.06;;;12.03;100.00
10202;BME280;5143;42.584;23.164;2023-04-24T05:07:13;92278.06;;;12.00;100.00
10202;BME280;5143;42.584;23.164;2023-04-24T05:09:39;92270.09;;;12.18;100.00
10202;BME280;5143;42.584;23.164;2023-04-24T05:12:06;92268.78;;;12.47;100.00
10202;BME280;5143;42.584;23.164;2023-04-24T05:14:33;92273.78;;;13.17;100.00
10202;BME280;5143;42.584;23.164;2023-04-24T05:17:00;92272.59;;;13.89;91.66
10202;BME280;5143;42.584;23.164;2023-04-24T05:19:26;92277.16;;;14.64;84.75
10202;BME280;5143;42.584;23.164;2023-04-24T05:21:53;92293.28;;;15.78;71.43
10202;BME280;5143;42.584;23.164;2023-04-24T05:24:22;92280.50;;;15.80;67.10
10202;BME280;5143;42.584;23.164;2023-04-24T05:26:48;92280.44;;;15.06;71.04
10202;BME280;5143;42.584;23.164;2023-04-24T05:29:15;92284.53;;;14.99;71.06
10202;BME280;5143;42.584;23.164;2023-04-24T05:31:44;92279.69;;;15.05;71.34
10202;BME280;5143;42.584;23.164;2023-04-24T05:34:11;92277.47;;;14.85;70.90
10202;BME280;5143;42.584;23.164;2023-04-24T05:36:37;92281.28;;;15.19;70.51
10202;BME280;5143;42.584;23.164;2023-04-24T05:39:04;92275.44;;;14.61;71.76
10202;BME280;5143;42.584;23.164;2023-04-24T05:41:32;92280.09;;;15.33;69.56
10202;BME280;5143;42.584;23.164;2023-04-24T05:43:59;92282.00;;;15.63;67.24
10202;BME280;5143;42.584;23.164;2023-04-24T05:46:26;92288.88;;;15.88;66.31
10202;BME280;5143;42.584;23.164;2023-04-24T05:48:52;92290.38;;;16.21;64.34
10202;BME280;5143;42.584;23.164;2023-04-24T05:51:19;92291.16;;;16.92;61.64
10202;BME280;5143;42.584;23.164;2023-04-24T05:53:46;92293.66;;;17.69;57.46
10202;BME280;5143;42.584;23.164;2023-04-24T05:56:13;92287.56;;;18.17;55.57
10202;BME280;5143;42.584;23.164;2023-04-24T05:58:41;92290.25;;;18.31;54.58
10202;BME280;5143;42.584;23.164;2023-04-24T06:01:08;92290.03;;;18.08;54.17
10202;BME280;5143;42.584;23.164;2023-04-24T06:03:34;92301.38;;;18.38;53.72
10202;BME280;5143;42.584;23.164;2023-04-24T06:06:01;92289.63;;;17.70;54.84
10202;BME280;5143;42.584;23.164;2023-04-24T06:08:28;92289.84;;;18.68;53.48
10202;BME280;5143;42.584;23.164;2023-04-24T06:10:55;92287.41;;;18.57;53.63
10202;BME280;5143;42.584;23.164;2023-04-24T06:13:22;92290.16;;;18.57;52.18
10202;BME280;5143;42.584;23.164;2023-04-24T06:15:50;92287.41;;;18.02;52.73
10202;BME280;5143;42.584;23.164;2023-04-24T06:18:17;92298.25;;;18.55;52.29
10202;BME280;5143;42.584;23.164;2023-04-24T06:20:44;92306.78;;;19.13;51.52
10202;BME280;5143;42.584;23.164;2023-04-24T06:23:11;92304.56;;;18.63;52.47
10202;BME280;5143;42.584;23.164;2023-04-24T06:25:38;92304.50;;;18.55;52.31
10202;BME280;5143;42.584;23.164;2023-04-24T06:28:05;92312.56;;;18.12;54.25
10202;BME280;5143;42.584;23.164;2023-04-24T06:30:31;92302.81;;;17.64;55.33
10202;BME280;5143;42.584;23.164;2023-04-24T06:33:00;92305.38;;;17.49;55.98
10202;BME280;5143;42.584;23.164;2023-04-24T06:35:26;92288.22;;;17.17;57.30
10202;BME280;5143;42.584;23.164;2023-04-24T06:37:53;92281.84;;;16.82;57.71
10202;BME280;5143;42.584;23.164;2023-04-24T06:40:22;92293.38;;;16.68;58.17
10202;BME280;5143;42.584;23.164;2023-04-24T06:42:48;92297.31;;;16.85;58.06
10202;BME280;5143;42.584;23.164;2023-04-24T06:45:15;92300.19;;;17.92;56.29
10202;BME280;5143;42.584;23.164;2023-04-24T06:47:42;92303.06;;;17.14;57.22
10202;BME280;5143;42.584;23.164;2023-04-24T06:50:10;92298.34;;;17.61;57.37
10202;BME280;5143;42.584;23.164;2023-04-24T06:52:37;92299.66;;;18.69;54.19
10202;BME280;5143;42.584;23.164;2023-04-24T06:55:05;92302.19;;;18.46;55.62
10202;BME280;5143;42.584;23.164;2023-04-24T06:57:32;92295.72;;;19.13;53.13
10202;BME280;5143;42.584;23.164;2023-04-24T06:59:59;92290.78;;;19.48;52.78
10202;BME280;5143;42.584;23.164;2023-04-24T07:02:26;92303.59;;;19.30;52.08
10202;BME280;5143;42.584;23.164;2023-04-24T07:04:52;92302.06;;;19.21;51.88
10202;BME280;5143;42.584;23.164;2023-04-24T07:07:21;92300.13;;;18.60;52.94
10202;BME280;5143;42.584;23.164;2023-04-24T07:09:49;92302.69;;;18.78;53.31
10202;BME280;5143;42.584;23.164;2023-04-24T07:12:16;92292.47;;;18.94;52.12
10202;BME280;5143;42.584;23.164;2023-04-24T07:14:45;92294.94;;;19.69;50.50
10202;BME280;5143;42.584;23.164;2023-04-24T07:17:12;92293.84;;;19.08;51.31
10202;BME280;5143;42.584;23.164;2023-04-24T07:19:39;92288.91;;;19.42;52.09
10202;BME280;5143;42.584;23.164;2023-04-24T07:22:05;92294.66;;;19.88;50.89
10202;BME280;5143;42.584;23.164;2023-04-24T07:24:33;92296.97;;;20.27;48.82
10202;BME280;5143;42.584;23.164;2023-04-24T07:27:00;92286.94;;;19.22;50.31
10202;BME280;5143;42.584;23.164;2023-04-24T07:29:27;92280.13;;;19.59;48.85
10202;BME280;5143;42.584;23.164;2023-04-24T07:31:54;92282.97;;;19.74;50.30
10202;BME280;5143;42.584;23.164;2023-04-24T07:34:21;92288.16;;;21.27;47.78
10202;BME280;5143;42.584;23.164;2023-04-24T07:36:48;92288.38;;;21.76;45.58
10202;BME280;5143;42.584;23.164;2023-04-24T07:39:15;92289.75;;;21.53;45.96
10202;BME280;5143;42.584;23.164;2023-04-24T07:41:43;92287.00;;;21.38;45.94
10202;BME280;5143;42.584;23.164;2023-04-24T07:44:10;92301.22;;;22.12;44.83
10202;BME280;5143;42.584;23.164;2023-04-24T07:46:36;92281.50;;;20.47;46.79
10202;BME280;5143;42.584;23.164;2023-04-24T07:49:04;92276.06;;;19.60;48.35
10202;BME280;5143;42.584;23.164;2023-04-24T07:51:30;92274.97;;;19.56;48.78
10202;BME280;5143;42.584;23.164;2023-04-24T07:53:59;92267.72;;;19.17;50.71
10202;BME280;5143;42.584;23.164;2023-04-24T07:56:25;92267.50;;;19.15;50.82
10202;BME280;5143;42.584;23.164;2023-04-24T07:58:53;92261.66;;;19.54;48.85
10202;BME280;5143;42.584;23.164;2023-04-24T08:01:20;92263.13;;;19.19;49.63
10202;BME280;5143;42.584;23.164;2023-04-24T08:03:47;92264.19;;;19.45;49.30
10202;BME280;5143;42.584;23.164;2023-04-24T08:06:13;92268.16;;;19.00;51.18
10202;BME280;5143;42.584;23.164;2023-04-24T08:08:40;92263.22;;;19.06;50.24
10202;BME280;5143;42.584;23.164;2023-04-24T08:11:07;92266.81;;;19.50;48.63
10202;BME280;5143;42.584;23.164;2023-04-24T08:13:34;92272.50;;;20.03;47.69
10202;BME280;5143;42.584;23.164;2023-04-24T08:16:02;92262.84;;;19.74;49.41
10202;BME280;5143;42.584;23.164;2023-04-24T08:18:29;92266.84;;;19.58;49.86
10202;BME280;5143;42.584;23.164;2023-04-24T08:20:56;92264.09;;;19.01;50.63
10202;BME280;5143;42.584;23.164;2023-04-24T08:23:26;92264.22;;;18.88;50.49
10202;BME280;5143;42.584;23.164;2023-04-24T08:25:54;92270.50;;;18.89;50.84
10202;BME280;5143;42.584;23.164;2023-04-24T08:28:21;92261.09;;;18.63;50.92
10202;BME280;5143;42.584;23.164;2023-04-24T08:30:48;92263.59;;;18.54;51.37
10202;BME280;5143;42.584;23.164;2023-04-24T08:33:22;92248.06;;;18.71;52.52
10202;BME280;5143;42.584;23.164;2023-04-24T08:35:49;92241.78;;;18.71;52.43
10202;BME280;5143;42.584;23.164;2023-04-24T08:38:15;92236.97;;;18.92;51.52
10202;BME280;5143;42.584;23.164;2023-04-24T08:40:42;92231.72;;;18.81;52.33
10202;BME280;5143;42.584;23.164;2023-04-24T08:43:11;92224.00;;;18.87;51.97
10202;BME280;5143;42.584;23.164;2023-04-24T08:45:39;92230.09;;;18.85;51.75
10202;BME280;5143;42.584;23.164;2023-04-24T08:48:07;92230.03;;;19.06;48.25
10202;BME280;5143;42.584;23.164;2023-04-24T08:50:35;92227.84;;;19.12;48.93
10202;BME280;5143;42.584;23.164;2023-04-24T08:53:03;92225.84;;;19.20;47.86
10202;BME280;5143;42.584;23.164;2023-04-24T08:55:32;92233.97;;;19.62;47.33
10202;BME280;5143;42.584;23.164;2023-04-24T08:57:59;92231.16;;;19.47;45.60
10202;BME280;5143;42.584;23.164;2023-04-24T09:00:27;92231.47;;;19.35;45.48
10202;BME280;5143;42.584;23.164;2023-04-24T09:02:55;92226.75;;;19.15;45.05
10202;BME280;5143;42.584;23.164;2023-04-24T09:05:22;92217.78;;;19.30;45.21
10202;BME280;5143;42.584;23.164;2023-04-24T09:07:54;92212.63;;;18.98;44.82
10202;BME280;5143;42.584;23.164;2023-04-24T09:10:21;92220.84;;;18.83;46.24
10202;BME280;5143;42.584;23.164;2023-04-24T09:12:50;92206.75;;;19.02;46.11
10202;BME280;5143;42.584;23.164;2023-04-24T09:15:17;92204.03;;;19.09;47.26
10202;BME280;5143;42.584;23.164;2023-04-24T09:17:46;92209.09;;;19.26;45.78
10202;BME280;5143;42.584;23.164;2023-04-24T09:20:13;92216.44;;;19.67;44.33
10202;BME280;5143;42.584;23.164;2023-04-24T09:22:39;92205.25;;;19.87;45.14
10202;BME280;5143;42.584;23.164;2023-04-24T09:25:09;92207.16;;;20.08;44.16
10202;BME280;5143;42.584;23.164;2023-04-24T09:27:41;92207.69;;;19.91;44.25
10202;BME280;5143;42.584;23.164;2023-04-24T09:30:10;92204.81;;;19.61;45.16
10202;BME280;5143;42.584;23.164;2023-04-24T09:32:37;92202.97;;;19.56;44.29
10202;BME280;5143;42.584;23.164;2023-04-24T09:35:08;92194.69;;;19.71;44.82
10202;BME280;5143;42.584;23.164;2023-04-24T09:37:36;92201.69;;;19.64;44.30
10202;BME280;5143;42.584;23.164;2023-04-24T09:40:14;92193.53;;;19.59;43.69
10202;BME280;5143;42.584;23.164;2023-04-24T09:42:44;92201.69;;;19.64;42.72
10202;BME280;5143;42.584;23.164;2023-04-24T09:45:11;92203.81;;;20.09;43.41
10202;BME280;5143;42.584;23.164;2023-04-24T09:47:38;92211.81;;;20.43;41.86
10202;BME280;5143;42.584;23.164;2023-04-24T09:50:16;92193.50;;;20.47;42.10
10202;BME280;5143;42.584;23.164;2023-04-24T09:52:44;92205.63;;;21.05;41.88
10202;BME280;5143;42.584;23.164;2023-04-24T09:55:15;92199.34;;;20.97;42.64
10202;BME280;5143;42.584;23.164;2023-04-24T09:57:50;92197.41;;;20.59;41.81
10202;BME280;5143;42.584;23.164;2023-04-24T10:00:24;92196.63;;;20.82;42.32
10202;BME280;5143;42.584;23.164;2023-04-24T10:02:56;92189.75;;;20.83;41.08
10202;BME280;5143;42.584;23.164;2023-04-24T10:05:24;92196.75;;;20.99;41.36
10202;BME280;5143;42.584;23.164;2023-04-24T10:07:51;92185.13;;;20.93;41.54
10202;BME280;5143;42.584;23.164;2023-04-24T10:10:19;92181.94;;;21.19;41.54
10202;BME280;5143;42.584;23.164;2023-04-24T10:12:46;92182.34;;;21.08;41.48
10202;BME280;5143;42.584;23.164;2023-04-24T10:15:13;92183.44;;;21.12;41.64
10202;BME280;5143;42.584;23.164;2023-04-24T10:17:46;92172.72;;;21.09;40.41
10202;BME280;5143;42.584;23.164;2023-04-24T10:20:18;92170.09;;;21.18;40.55
10202;BME280;5143;42.584;23.164;2023-04-24T10:22:47;92157.56;;;20.95;39.99
10202;BME280;5143;42.584;23.164;2023-04-24T10:25:16;92164.56;;;21.03;40.58
10202;BME280;5143;42.584;23.164;2023-04-24T10:27:45;92171.63;;;20.89;43.10
10202;BME280;5143;42.584;23.164;2023-04-24T10:30:12;92165.94;;;20.65;41.46
10202;BME280;5143;42.584;23.164;2023-04-24T10:32:39;92157.03;;;20.81;41.65
10202;BME280;5143;42.584;23.164;2023-04-24T10:35:07;92147.84;;;21.26;41.76
10202;BME280;5143;42.584;23.164;2023-04-24T10:37:36;92163.91;;;20.65;42.64
10202;BME280;5143;42.584;23.164;2023-04-24T10:40:04;92150.59;;;20.79;41.83
10202;BME280;5143;42.584;23.164;2023-04-24T10:42:32;92155.78;;;20.44;42.70
10202;BME280;5143;42.584;23.164;2023-04-24T10:45:04;92146.53;;;20.65;42.27
10202;BME280;5143;42.584;23.164;2023-04-24T10:47:39;92151.38;;;20.34;42.95
10202;BME280;5143;42.584;23.164;2023-04-24T10:50:08;92155.22;;;20.08;43.52
10202;BME280;5143;42.584;23.164;2023-04-24T10:52:45;92152.44;;;19.93;43.34
10202;BME280;5143;42.584;23.164;2023-04-24T10:55:12;92147.94;;;19.52;44.34
10202;BME280;5143;42.584;23.164;2023-04-24T10:57:39;92142.13;;;19.27;44.91
10202;BME280;5143;42.584;23.164;2023-04-24T11:00:19;92132.25;;;19.04;45.95
10202;BME280;5143;42.584;23.164;2023-04-24T11:02:47;92145.84;;;18.87;46.11
10202;BME280;5143;42.584;23.164;2023-04-24T11:05:16;92143.16;;;18.73;46.83
10202;BME280;5143;42.584;23.164;2023-04-24T11:08:12;92147.22;;;18.44;47.43
10202;BME280;5143;42.584;23.164;2023-04-24T11:10:40;92138.25;;;18.23;50.44
10202;BME280;5143;42.584;23.164;2023-04-24T11:13:07;92135.72;;;18.04;51.59
10202;BME280;5143;42.584;23.164;2023-04-24T11:15:36;92142.88;;;17.79;51.79
10202;BME280;5143;42.584;23.164;2023-04-24T11:18:02;92130.56;;;17.46;54.12
10202;BME280;5143;42.584;23.164;2023-04-24T11:20:29;92138.19;;;17.20;55.88
10202;BME280;5143;42.584;23.164;2023-04-24T11:23:03;92131.41;;;17.21;54.39
10202;BME280;5143;42.584;23.164;2023-04-24T11:25:30;92132.25;;;17.49;52.69
10202;BME280;5143;42.584;23.164;2023-04-24T11:28:03;92129.19;;;17.74;50.13
10202;BME280;5143;42.584;23.164;2023-04-24T11:30:31;92148.88;;;17.91;52.28
10202;BME280;5143;42.584;23.164;2023-04-24T11:33:03;92170.47;;;17.79;55.51
10202;BME280;5143;42.584;23.164;2023-04-24T11:35:35;92157.69;;;16.88;68.67
10202;BME280;5143;42.584;23.164;2023-04-24T11:38:03;92164.47;;;15.76;100.00
10202;BME280;5143;42.584;23.164;2023-04-24T11:40:30;92151.00;;;15.60;100.00
10202;BME280;5143;42.584;23.164;2023-04-24T11:42:59;92132.59;;;15.68;100.00
10202;BME280;5143;42.584;23.164;2023-04-24T11:45:27;92124.66;;;15.64;86.90
10202;BME280;5143;42.584;23.164;2023-04-24T11:47:54;92107.66;;;15.47;100.00
10202;BME280;5143;42.584;23.164;2023-04-24T11:50:24;92109.44;;;15.45;100.00
10202;BME280;5143;42.584;23.164;2023-04-24T11:52:52;92103.56;;;15.54;100.00
10202;BME280;5143;42.584;23.164;2023-04-24T11:55:28;92095.72;;;15.26;100.00
10202;BME280;5143;42.584;23.164;2023-04-24T11:57:57;92103.97;;;15.26;100.00
10202;BME280;5143;42.584;23.164;2023-04-24T12:00:26;92108.72;;;14.94;100.00
10202;BME280;5143;42.584;23.164;2023-04-24T12:03:04;92105.19;;;14.37;100.00
10202;BME280;5143;42.584;23.164;2023-04-24T12:05:33;92088.91;;;13.96;100.00
10202;BME280;5143;42.584;23.164;2023-04-24T12:08:00;92068.00;;;13.93;100.00
10202;BME280;5143;42.584;23.164;2023-04-24T12:10:28;92058.56;;;13.89;100.00
10202;BME280;5143;42.584;23.164;2023-04-24T12:12:56;92062.78;;;14.14;100.00
10202;BME280;5143;42.584;23.164;2023-04-24T12:15:24;92068.72;;;14.61;100.00
10202;BME280;5143;42.584;23.164;2023-04-24T12:17:52;92061.06;;;15.04;100.00
10202;BME280;5143;42.584;23.164;2023-04-24T12:20:24;92057.66;;;15.49;100.00
10202;BME280;5143;42.584;23.164;2023-04-24T12:22:53;92056.31;;;15.94;100.00
10202;BME280;5143;42.584;23.164;2023-04-24T12:25:21;92061.81;;;16.08;100.00
10202;BME280;5143;42.584;23.164;2023-04-24T12:27:53;92057.69;;;16.14;100.00
10202;BME280;5143;42.584;23.164;2023-04-24T12:30:20;92059.50;;;15.99;100.00
10202;BME280;5143;42.584;23.164;2023-04-24T12:32:48;92070.06;;;15.68;100.00
10202;BME280;5143;42.584;23.164;2023-04-24T12:35:19;92076.72;;;15.41;100.00
10202;BME280;5143;42.584;23.164;2023-04-24T12:37:46;92059.25;;;15.25;100.00
10202;BME280;5143;42.584;23.164;2023-04-24T12:40:15;92034.28;;;15.23;100.00
10202;BME280;5143;42.584;23.164;2023-04-24T12:42:43;92033.06;;;15.38;100.00
10202;BME280;5143;42.584;23.164;2023-04-24T12:45:09;92034.22;;;15.42;100.00
10202;BME280;5143;42.584;23.164;2023-04-24T12:47:38;92037.91;;;15.76;100.00
10202;BME280;5143;42.584;23.164;2023-04-24T12:50:06;92027.94;;;15.86;100.00
10202;BME280;5143;42.584;23.164;2023-04-24T12:52:33;92016.38;;;15.88;100.00
10202;BME280;5143;42.584;23.164;2023-04-24T12:55:00;92005.91;;;16.00;100.00
10202;BME280;5143;42.584;23.164;2023-04-24T12:57:30;92005.75;;;16.44;100.00